Etusivu
METAR-TAF:

METAR-TAF

Lentoasemat :

Waskish Municipal Airport

Waskish, Minnesota, Yhdysvallat

Leveyspiiri: 48-09-15N, Pituuspiiri: 094-31-01W, korkeus merenpinnasta: 360 m

Tämänhetkinen sää

Tämä raportti tehtiin 17 minuuttia sitten, kello 09.15 UTC
tyyntä
Lämpötila -14°C
Kosteus 92%
Ilmanpaine 1015 hPa
Näkyvyys: 16.1 km
selkeää

METAR: KVWU 110915Z AUTO 00000KT 10SM CLR M14/M15 A2997 RMK AO2

Aika: 03:32 (09:32 UTC)


TAF: puuttuu

Säähavainnot ja -ennusteet yli 4000 lentoasemalta (METAR- ja TAF-raportit).

Käytössä olevat sääasemat on merkitty karttaan keltaisilla ja punaisilla pisteillä.

Aseta hiiri pisteen päälle nähdäksesi sääaseman nimen.

Klikkaa sitten nähdäksesi säähavainnot ja -ennusteet.

Kartan vaihtaminen: klikkaa mustalla rastilla varustettuja vihreitä pisteitä, niin voit zoomata sisään; viivalla varustettua vihreää pistettä, niin voit zoomata ulos tai vihreitä nuolia, niin pääset viereisille kartoille.


METAR-TAF: